Главная страница
METAR-TAF:

METAR-TAF

Аэропорты :

Амман, Иордания

широта: 31-59N, долгота: 035-59E, высота над уровнем моря: 767 м

Текущие метеонаблюдения

Эта сводка был подготовлена 39 минут назад, в 03:00 UTC
Ветер 4 Узел от западный-юго-западный
Температура 21°C
Влажность 60%
Давление 1010 hPa
Видимость: 5000 м
мгла

METAR: OJAM 150300Z 25004KT 5000 HZ NSC 21/13 Q1010 NOSIG

Время: 06:39 (03:39 UTC)

Прогноз

Эта сводка был подготовлена 4 часа и 45 минут назад, в 22:54 UTC
Прогноз действительный с 15-го 00 UTC до 16-го 06 UTC
Ветер 6 Узел от западно-северо-западный
Видимость: 7000 м
временами
С 15-го 09 UTC до 15-го 15 UTC
Ветер 12 Узел от северо-западный
Видимость: 5000 м
небольшая облачность на высоте 3000 фута
мгла

TAF: OJAM 142254Z 1500/1606 30006KT 7000 NSC TEMPO 1509/1515 31012KT 5000 HZ FEW030

Метеонаблюдения и прогнозы для более 4000 аэропортов (сводки METAR и TAF).

Имеющиеся станции представлены на карте желтыми и красными точками.

Чтобы увидеть название станции, наведите на нее мышь.

Затем щелкните, чтобы увидеть метеонаблюдения и метеопрогнозы.

Управление картой: чтобы увеличить масштаб, щелкните зеленые кнопки с черным крестиком; чтобы уменьшить масштаб, щелкните зеленую кнопку с тире; для просмотра соседних карт щелкайте зеленые стрелки.


METAR-TAF: